Time;durP1;ratioP1;P1;durP2;ratioP2;P2;SDS_P1;SDS_P2;PMS_P1;PMS_P2;Temp;Humidity;BMP_temperature;BMP_pressure;BME280_temperature;BME280_humidity;BME280_pressure;Samples;Min_cycle;Max_cycle;Signal;HPM_P1;HPM_P2
2022/04/01 00:00:58;;;;;;;29.55;16.70;;;3.90;99.90;;;;;;5014000;28;20399;-73
2022/04/01 00:03:23;;;;;;;31.23;17.77;;;3.90;99.90;;;;;;5016528;28;20033;-73
2022/04/01 00:05:49;;;;;;;28.10;16.55;;;3.90;99.90;;;;;;5021300;28;20068;-73
2022/04/01 00:08:15;;;;;;;25.38;15.45;;;3.90;99.90;;;;;;5013655;28;20046;-77
2022/04/01 00:10:41;;;;;;;29.20;17.13;;;4.00;99.90;;;;;;5013302;28;20463;-71
2022/04/01 00:13:06;;;;;;;25.60;15.80;;;4.00;99.90;;;;;;5014204;28;20034;-73
2022/04/01 00:15:32;;;;;;;27.67;16.95;;;4.00;99.90;;;;;;5022026;28;20029;-73
2022/04/01 00:18:00;;;;;;;28.25;15.55;;;3.90;99.90;;;;;;5024451;28;20168;-72
2022/04/01 00:20:27;;;;;;;23.67;14.75;;;3.90;99.90;;;;;;5000229;28;20378;-73
2022/04/01 00:22:53;;;;;;;25.90;15.75;;;4.10;99.90;;;;;;5024109;28;20022;-73
2022/04/01 00:25:19;;;;;;;27.83;16.40;;;4.10;99.90;;;;;;5008174;28;20405;-78
2022/04/01 00:27:45;;;;;;;24.70;15.20;;;4.00;99.90;;;;;;4999505;28;20045;-72
2022/04/01 00:30:12;;;;;;;30.95;16.85;;;4.20;99.90;;;;;;5020147;28;20033;-72
2022/04/01 00:32:37;;;;;;;29.48;16.58;;;4.20;99.90;;;;;;5021420;28;20022;-72
2022/04/01 00:35:04;;;;;;;28.90;17.55;;;4.10;99.90;;;;;;5022156;28;20029;-72
2022/04/01 00:37:30;;;;;;;30.73;17.65;;;4.10;99.90;;;;;;5006007;28;20077;-73
2022/04/01 00:39:56;;;;;;;30.85;18.48;;;4.10;99.90;;;;;;5019587;28;20122;-72
2022/04/01 00:42:23;;;;;;;31.15;18.52;;;4.10;99.90;;;;;;5021084;28;20021;-72
2022/04/01 00:44:49;;;;;;;31.20;18.20;;;4.10;99.90;;;;;;5020904;28;20034;-72
2022/04/01 00:47:15;;;;;;;27.92;17.42;;;4.10;99.90;;;;;;5024130;28;20036;-72
2022/04/01 00:49:43;;;;;;;27.75;17.13;;;4.10;99.90;;;;;;5029848;28;20084;-72
2022/04/01 00:52:11;;;;;;;28.60;18.02;;;4.20;99.90;;;;;;5042332;28;20036;-72
2022/04/01 00:54:38;;;;;;;28.77;17.65;;;4.10;99.90;;;;;;5042850;28;20052;-73
2022/04/01 00:57:08;;;;;;;28.10;17.20;;;4.10;99.90;;;;;;5045646;28;20112;-72
2022/04/01 00:59:33;;;;;;;23.83;16.02;;;4.10;99.90;;;;;;5045877;28;20029;-72
2022/04/01 01:02:00;;;;;;;26.67;17.25;;;4.10;99.90;;;;;;5052978;28;20116;-73
2022/04/01 01:04:26;;;;;;;26.83;16.65;;;4.00;99.90;;;;;;5050996;28;20029;-74
2022/04/01 01:07:00;;;;;;;27.40;16.38;;;4.00;99.90;;;;;;5048833;28;20045;-72
2022/04/01 01:09:25;;;;;;;24.08;15.30;;;4.00;99.90;;;;;;5040417;28;20061;-72
2022/04/01 01:11:52;;;;;;;28.27;16.38;;;4.00;99.90;;;;;;5032816;28;20025;-72
2022/04/01 01:14:31;;;;;;;24.55;15.93;;;4.00;99.90;;;;;;5032399;28;20075;-77
2022/04/01 01:16:58;;;;;;;30.17;17.25;;;3.90;99.90;;;;;;5037336;28;20120;-72
2022/04/01 01:19:25;;;;;;;26.50;16.67;;;3.80;99.90;;;;;;5051532;28;20021;-72
2022/04/01 01:21:52;;;;;;;31.27;18.08;;;3.80;99.90;;;;;;5051851;28;20075;-72
2022/04/01 01:24:35;;;;;;;28.77;16.77;;;3.70;99.90;;;;;;5050108;28;20061;-77
2022/04/01 01:27:01;;;;;;;24.90;16.88;;;3.70;99.90;;;;;;5031491;28;20064;-72
2022/04/01 01:29:29;;;;;;;28.70;16.48;;;3.70;99.90;;;;;;5036747;28;20025;-72
2022/04/01 01:31:58;;;;;;;24.65;14.98;;;3.70;99.90;;;;;;5052239;28;20115;-72
2022/04/01 01:34:24;;;;;;;25.98;15.35;;;3.70;99.90;;;;;;5036813;28;20463;-72
2022/04/01 01:36:51;;;;;;;23.70;14.65;;;3.70;99.90;;;;;;5038761;28;20158;-72
2022/04/01 01:39:18;;;;;;;24.85;14.88;;;3.70;99.90;;;;;;5053536;28;20050;-72
2022/04/01 01:41:45;;;;;;;24.05;15.15;;;3.80;99.90;;;;;;5053320;28;20032;-72
2022/04/01 01:44:12;;;;;;;21.95;14.65;;;3.70;99.90;;;;;;5042762;28;20033;-72
2022/04/01 01:46:38;;;;;;;21.20;13.15;;;3.70;99.90;;;;;;5047697;28;20040;-72
2022/04/01 01:49:05;;;;;;;20.15;13.65;;;3.70;99.90;;;;;;5029905;28;20018;-72
2022/04/01 01:56:59;;;;;;;24.63;15.63;;;3.60;99.90;;;;;;5012767;28;20111;-71
2022/04/01 01:59:26;;;;;;;24.58;14.98;;;3.40;99.90;;;;;;5011634;28;20030;-71
2022/04/01 02:01:52;;;;;;;24.58;14.85;;;3.40;99.90;;;;;;5012486;28;20464;-72
2022/04/01 02:04:22;;;;;;;27.77;16.35;;;3.50;99.90;;;;;;5028609;28;20116;-76
2022/04/01 02:06:48;;;;;;;23.13;14.68;;;3.50;99.90;;;;;;5040935;28;20504;-72
2022/04/01 02:09:15;;;;;;;22.05;14.73;;;3.60;99.90;;;;;;5040642;28;20029;-74
2022/04/01 02:11:41;;;;;;;24.15;15.55;;;3.60;99.90;;;;;;5039085;28;20060;-72
2022/04/01 02:14:06;;;;;;;23.95;14.10;;;3.60;99.90;;;;;;5028154;28;20029;-72
2022/04/01 02:16:33;;;;;;;24.52;14.10;;;3.60;99.90;;;;;;5020169;28;20034;-72
2022/04/01 02:18:59;;;;;;;23.95;14.73;;;3.60;99.90;;;;;;5035481;28;20076;-72
2022/04/01 02:21:25;;;;;;;25.85;15.63;;;3.50;99.90;;;;;;5015763;28;20022;-72
2022/04/01 02:23:51;;;;;;;23.92;15.00;;;3.40;99.90;;;;;;5025176;28;20030;-72
2022/04/01 02:26:17;;;;;;;19.85;13.02;;;3.40;99.90;;;;;;5020229;28;20061;-72
2022/04/01 02:28:43;;;;;;;21.67;13.32;;;3.50;99.90;;;;;;5033276;28;20042;-72
2022/04/01 02:31:11;;;;;;;21.25;14.30;;;3.50;99.90;;;;;;5032574;28;20042;-72
2022/04/01 02:33:37;;;;;;;20.67;13.55;;;3.40;99.90;;;;;;5022133;28;20112;-72
2022/04/01 02:36:10;;;;;;;22.63;14.70;;;3.50;99.90;;;;;;5035169;28;20068;-73
2022/04/01 02:38:39;;;;;;;20.65;14.35;;;3.40;99.90;;;;;;5034811;28;20041;-73
2022/04/01 02:41:06;;;;;;;23.70;15.52;;;3.50;99.90;;;;;;5035865;28;20036;-72
2022/04/01 02:43:32;;;;;;;24.65;15.55;;;3.40;99.90;;;;;;5028725;28;20038;-73
2022/04/01 02:45:57;;;;;;;26.10;16.42;;;3.40;99.90;;;;;;5030538;28;20117;-73
2022/04/01 02:48:23;;;;;;;26.23;16.50;;;3.30;99.90;;;;;;5030848;28;20112;-78
2022/04/01 02:50:49;;;;;;;24.63;16.33;;;3.40;99.90;;;;;;5047479;28;20045;-73
2022/04/01 02:53:16;;;;;;;25.42;16.52;;;3.50;99.90;;;;;;5051296;28;20402;-73
2022/04/01 02:55:42;;;;;;;25.25;16.42;;;3.50;99.90;;;;;;5033295;28;20577;-73
2022/04/01 02:58:09;;;;;;;27.50;16.60;;;3.50;99.90;;;;;;5035252;28;20051;-73
2022/04/01 03:00:37;;;;;;;24.75;16.13;;;3.50;99.90;;;;;;5034155;28;20108;-73
2022/04/01 03:03:06;;;;;;;24.55;15.57;;;3.50;99.90;;;;;;5036711;28;20030;-73
2022/04/01 03:05:33;;;;;;;23.67;15.23;;;3.60;99.90;;;;;;5054065;28;20067;-73
2022/04/01 03:07:58;;;;;;;24.80;16.13;;;3.60;99.90;;;;;;5043303;28;20042;-73
2022/04/01 03:10:24;;;;;;;28.58;16.38;;;3.60;99.90;;;;;;5049006;28;20459;-75
2022/04/01 03:12:51;;;;;;;25.48;16.10;;;3.60;99.90;;;;;;5052946;28;20021;-72
2022/04/01 03:15:17;;;;;;;24.80;16.25;;;3.60;99.90;;;;;;5034589;28;20040;-72
2022/04/01 03:17:43;;;;;;;28.48;17.48;;;3.50;99.90;;;;;;5035253;28;20044;-73
2022/04/01 03:20:13;;;;;;;28.98;18.23;;;3.50;99.90;;;;;;5035284;28;20034;-72
2022/04/01 03:22:40;;;;;;;30.30;18.45;;;3.50;99.90;;;;;;5053843;28;20413;-72
2022/04/01 03:25:13;;;;;;;31.88;18.33;;;3.40;99.90;;;;;;5033971;28;20044;-72
2022/04/01 03:27:39;;;;;;;26.02;16.20;;;3.50;99.90;;;;;;5039150;28;20025;-72
2022/04/01 03:30:09;;;;;;;26.40;16.52;;;3.60;99.90;;;;;;5054770;28;20044;-72
2022/04/01 03:32:39;;;;;;;22.00;15.00;;;3.50;99.90;;;;;;5041459;28;20025;-72
2022/04/01 03:35:07;;;;;;;21.10;13.95;;;3.60;99.90;;;;;;5035170;28;20378;-72
2022/04/01 03:37:33;;;;;;;20.27;13.50;;;3.50;99.90;;;;;;5035003;28;20029;-73
2022/04/01 03:40:00;;;;;;;23.42;15.10;;;3.60;99.90;;;;;;5034642;28;20455;-73
2022/04/01 03:42:32;;;;;;;25.08;15.55;;;3.50;99.90;;;;;;5033685;28;20038;-74
2022/04/01 03:45:07;;;;;;;23.13;14.43;;;3.50;99.90;;;;;;5042723;28;20029;-72
2022/04/01 03:47:44;;;;;;;21.33;15.05;;;3.50;99.90;;;;;;5053757;28;20535;-72
2022/04/01 03:50:12;;;;;;;23.70;15.05;;;3.50;99.90;;;;;;5057733;28;20559;-72
2022/04/01 03:52:38;;;;;;;24.88;15.98;;;3.40;99.90;;;;;;5054010;28;20131;-72
2022/04/01 03:55:08;;;;;;;23.63;15.93;;;3.40;99.90;;;;;;5041117;28;20112;-72
2022/04/01 03:57:35;;;;;;;;;;;3.40;99.90;;;;;;5033860;28;20037;-72
2022/04/01 04:00:02;;;;;;;25.80;16.38;;;3.30;99.90;;;;;;5045520;28;19930;-72
2022/04/01 04:02:32;;;;;;;26.90;17.38;;;3.40;99.90;;;;;;5052989;28;20033;-72
2022/04/01 04:05:00;;;;;;;27.85;17.20;;;3.40;99.90;;;;;;5054280;28;20112;-72
2022/04/01 04:07:26;;;;;;;28.30;17.05;;;3.40;99.90;;;;;;5052456;28;20201;-74
2022/04/01 04:09:53;;;;;;;30.70;17.75;;;3.30;99.90;;;;;;5053608;28;20036;-71
2022/04/01 04:12:20;;;;;;;27.02;17.70;;;3.40;99.90;;;;;;5044926;28;20363;-72
2022/04/01 04:14:51;;;;;;;31.67;19.70;;;3.40;99.90;;;;;;5031999;28;20036;-71
2022/04/01 04:17:35;;;;;;;31.30;19.63;;;3.40;99.90;;;;;;5040019;28;20033;-72
2022/04/01 04:20:02;;;;;;;30.67;18.58;;;3.40;99.90;;;;;;5054308;28;20032;-73
2022/04/01 04:22:46;;;;;;;29.92;18.83;;;3.40;99.90;;;;;;5052339;28;20033;-73
2022/04/01 04:25:14;;;;;;;24.98;17.25;;;3.40;99.90;;;;;;5053766;28;20028;-71
2022/04/01 04:27:51;;;;;;;29.88;19.05;;;3.40;99.90;;;;;;5051820;28;20459;-71
2022/04/01 04:30:18;;;;;;;26.40;17.35;;;3.30;99.90;;;;;;5053314;28;20374;-72
2022/04/01 04:32:55;;;;;;;25.90;16.92;;;3.30;99.90;;;;;;5034147;28;20037;-72
2022/04/01 04:35:21;;;;;;;21.17;15.27;;;3.30;99.90;;;;;;5033908;28;20121;-72
2022/04/01 04:37:50;;;;;;;21.63;15.43;;;3.40;99.90;;;;;;5047355;28;20029;-71
2022/04/01 04:40:17;;;;;;;20.85;14.55;;;3.30;99.90;;;;;;5057085;28;20074;-73
2022/04/01 04:42:50;;;;;;;20.25;14.93;;;3.30;99.90;;;;;;5042090;28;20057;-71
2022/04/01 04:45:18;;;;;;;20.48;14.90;;;3.30;99.90;;;;;;5052866;28;20064;-72
2022/04/01 04:47:46;;;;;;;22.38;14.65;;;3.20;99.90;;;;;;5038942;28;20450;-73
2022/04/01 04:50:13;;;;;;;20.65;15.15;;;3.20;99.90;;;;;;5038463;28;20041;-73
2022/04/01 04:52:44;;;;;;;21.25;14.98;;;3.30;99.90;;;;;;5031491;28;20077;-73
2022/04/01 04:55:17;;;;;;;20.08;14.00;;;3.30;99.90;;;;;;5032814;28;20022;-72
2022/04/01 04:57:44;;;;;;;21.25;14.38;;;3.20;99.90;;;;;;5031729;28;20065;-73
2022/04/01 05:00:10;;;;;;;21.02;15.07;;;3.10;99.90;;;;;;5032342;28;20068;-73
2022/04/01 05:02:53;;;;;;;18.75;14.15;;;3.20;99.90;;;;;;5031388;28;20120;-73
2022/04/01 05:05:43;;;;;;;18.15;12.63;;;3.20;99.90;;;;;;5032542;28;20048;-72
2022/04/01 05:08:28;;;;;;;;;;;3.20;99.90;;;;;;5032507;28;20383;-72
2022/04/01 05:11:06;;;;;;;15.70;10.93;;;3.20;99.90;;;;;;5024157;28;19916;-74
2022/04/01 05:13:54;;;;;;;15.88;11.40;;;3.10;99.90;;;;;;5031565;28;20475;-72
2022/04/01 05:16:31;;;;;;;16.65;11.88;;;3.10;99.90;;;;;;5030309;28;20376;-71
2022/04/01 05:19:09;;;;;;;16.27;11.82;;;3.00;99.90;;;;;;5012944;28;20057;-74
2022/04/01 05:22:02;;;;;;;16.10;11.77;;;2.90;99.90;;;;;;5011840;28;20079;-77
2022/04/01 05:24:48;;;;;;;19.27;12.90;;;2.90;99.90;;;;;;5012176;28;20054;-79
2022/04/01 05:27:30;;;;;;;16.20;11.20;;;2.90;99.90;;;;;;5013226;28;20046;-73
2022/04/01 05:30:13;;;;;;;17.42;12.25;;;2.90;99.90;;;;;;5012536;28;20042;-73
2022/04/01 05:32:59;;;;;;;16.23;11.60;;;2.90;99.90;;;;;;5011943;28;20491;-74
2022/04/01 05:35:35;;;;;;;14.27;11.23;;;2.90;99.90;;;;;;5012055;28;20022;-73
2022/04/01 05:38:01;;;;;;;15.23;11.55;;;2.90;99.90;;;;;;5030479;28;20056;-73
2022/04/01 05:40:29;;;;;;;16.90;11.93;;;2.90;99.90;;;;;;5023266;28;20028;-77
2022/04/01 05:43:00;;;;;;;15.00;10.82;;;2.80;99.90;;;;;;5031582;28;20021;-73
2022/04/01 05:45:28;;;;;;;15.65;11.75;;;2.80;99.90;;;;;;5031956;28;20029;-81
2022/04/01 05:47:56;;;;;;;14.95;11.10;;;2.80;99.90;;;;;;5031569;28;20542;-73
2022/04/01 05:50:22;;;;;;;14.93;11.10;;;2.80;99.90;;;;;;5027065;28;20042;-73
2022/04/01 05:52:51;;;;;;;14.77;10.90;;;2.80;99.90;;;;;;5032446;28;20022;-74
2022/04/01 05:55:21;;;;;;;14.55;11.20;;;2.70;99.90;;;;;;5032300;28;20052;-73
2022/04/01 05:57:46;;;;;;;13.90;10.50;;;2.70;99.90;;;;;;5054073;28;20049;-75
2022/04/01 06:00:12;;;;;;;12.65;9.15;;;2.80;99.90;;;;;;5034747;28;20071;-74
2022/04/01 06:02:50;;;;;;;12.07;8.32;;;2.80;99.90;;;;;;5031757;28;20040;-74
2022/04/01 06:05:35;;;;;;;12.25;8.98;;;2.80;99.90;;;;;;5032060;28;20052;-74
2022/04/01 06:08:39;;;;;;;15.13;9.23;;;2.90;99.90;;;;;;5033444;28;20060;-74
2022/04/01 06:11:13;;;;;;;15.63;11.13;;;2.90;99.90;;;;;;5036067;28;20030;-74
2022/04/01 06:14:02;;;;;;;20.98;13.23;;;2.80;99.90;;;;;;5033290;28;20026;-76
2022/04/01 06:16:43;;;;;;;21.10;12.98;;;2.80;99.90;;;;;;5034815;28;20045;-78
2022/04/01 06:19:25;;;;;;;21.77;13.15;;;2.70;99.90;;;;;;5043053;28;20498;-75
2022/04/01 06:22:04;;;;;;;24.20;15.10;;;2.70;99.90;;;;;;5038549;28;20056;-75
2022/04/01 06:24:51;;;;;;;22.05;13.77;;;2.70;99.90;;;;;;5041801;28;20104;-78
2022/04/01 06:27:46;;;;;;;22.65;13.38;;;2.70;99.90;;;;;;5041831;28;20394;-75
2022/04/01 06:30:14;;;;;;;23.38;13.75;;;2.70;99.90;;;;;;5029758;28;20367;-75
2022/04/01 06:32:55;;;;;;;25.10;15.05;;;2.70;99.90;;;;;;5040718;28;20078;-74
2022/04/01 06:35:38;;;;;;;24.98;15.95;;;2.60;99.90;;;;;;5039747;28;20018;-75
2022/04/01 06:38:11;;;;;;;25.75;15.60;;;2.50;99.90;;;;;;5038941;28;20044;-74
2022/04/01 06:41:06;;;;;;;27.80;15.48;;;2.50;99.90;;;;;;5038922;28;20029;-74
2022/04/01 06:43:32;;;;;;;25.15;14.93;;;2.50;99.90;;;;;;5033304;28;20028;-78
2022/04/01 06:45:58;;;;;;;24.23;14.98;;;2.50;99.90;;;;;;5047742;28;20037;-74
2022/04/01 06:48:23;;;;;;;24.77;15.27;;;2.50;99.90;;;;;;5050942;28;20068;-73
2022/04/01 06:50:49;;;;;;;22.95;15.82;;;2.50;99.90;;;;;;5051088;28;20241;-73
2022/04/01 06:53:19;;;;;;;25.58;16.23;;;2.50;99.90;;;;;;5055001;28;20033;-72
2022/04/01 06:55:46;;;;;;;27.10;15.97;;;2.50;99.90;;;;;;5051828;28;20421;-73
2022/04/01 06:58:11;;;;;;;25.92;15.23;;;2.50;99.90;;;;;;5038912;28;20784;-73
2022/04/01 07:00:40;;;;;;;24.25;15.38;;;2.60;99.90;;;;;;5034675;28;20041;-75
2022/04/01 07:03:07;;;;;;;26.88;16.83;;;2.60;99.90;;;;;;5033833;28;20383;-74
2022/04/01 07:05:34;;;;;;;24.77;15.85;;;2.50;99.90;;;;;;5034637;28;20037;-78
2022/04/01 07:08:02;;;;;;;25.98;16.63;;;2.50;99.90;;;;;;5046831;28;20036;-74
2022/04/01 07:10:27;;;;;;;30.63;19.20;;;2.50;99.90;;;;;;5054857;28;20029;-74
2022/04/01 07:12:53;;;;;;;28.58;18.17;;;2.40;99.90;;;;;;5052963;28;20021;-74
2022/04/01 07:15:19;;;;;;;26.33;16.80;;;2.50;99.90;;;;;;5053912;28;20021;-73
2022/04/01 07:17:45;;;;;;;25.15;16.42;;;2.60;99.90;;;;;;5047950;28;20404;-73
2022/04/01 07:20:12;;;;;;;26.65;17.45;;;2.50;99.90;;;;;;5047559;28;20394;-75
2022/04/01 07:22:39;;;;;;;27.13;16.70;;;2.50;99.90;;;;;;5043714;28;20021;-75
2022/04/01 07:25:05;;;;;;;30.80;17.77;;;2.50;99.90;;;;;;5042102;28;20493;-75
2022/04/01 07:27:31;;;;;;;22.77;15.38;;;2.60;99.90;;;;;;5047160;28;20040;-79
2022/04/01 07:29:56;;;;;;;27.10;16.60;;;2.60;99.90;;;;;;5042214;28;20030;-74
2022/04/01 07:32:32;;;;;;;24.42;15.73;;;2.50;99.90;;;;;;5042895;28;20034;-74
2022/04/01 07:34:59;;;;;;;25.77;16.70;;;2.60;99.90;;;;;;5044368;28;20021;-74
2022/04/01 07:37:27;;;;;;;26.48;17.60;;;2.50;99.90;;;;;;5049109;28;20038;-73
2022/04/01 07:39:57;;;;;;;23.33;15.57;;;2.50;99.90;;;;;;5035887;28;20014;-75
2022/04/01 07:42:23;;;;;;;23.05;15.75;;;2.50;99.90;;;;;;5053677;28;21384;-72
2022/04/01 07:44:50;;;;;;;26.70;16.60;;;2.50;99.90;;;;;;5038945;28;20040;-72
2022/04/01 07:47:18;;;;;;;27.05;16.90;;;2.40;99.90;;;;;;5046963;28;20044;-71
2022/04/01 07:49:45;;;;;;;24.70;16.98;;;2.50;99.90;;;;;;5036734;28;20075;-73
2022/04/01 07:52:13;;;;;;;22.40;15.02;;;2.50;99.90;;;;;;5043056;28;20033;-73
2022/04/01 07:54:40;;;;;;;22.80;15.20;;;2.60;99.90;;;;;;5053806;28;20071;-72
2022/04/01 07:57:07;;;;;;;24.60;15.43;;;2.50;99.90;;;;;;5055254;28;20567;-74
2022/04/01 07:59:34;;;;;;;24.73;15.90;;;2.50;99.90;;;;;;5054786;28;20086;-80
2022/04/01 08:02:00;;;;;;;24.05;16.77;;;2.50;99.90;;;;;;5055172;28;20037;-74
2022/04/01 08:04:27;;;;;;;25.58;17.27;;;2.40;99.90;;;;;;5056596;28;20164;-73
2022/04/01 08:06:56;;;;;;;26.48;17.30;;;2.40;99.90;;;;;;5054164;28;20581;-78
2022/04/01 08:09:23;;;;;;;29.05;19.08;;;2.40;99.90;;;;;;5057460;28;20021;-74
2022/04/01 08:11:49;;;;;;;30.33;19.02;;;2.40;99.90;;;;;;5052944;28;20025;-74
2022/04/01 08:14:17;;;;;;;27.20;17.65;;;2.50;99.90;;;;;;5043531;28;20151;-73
2022/04/01 08:16:43;;;;;;;28.17;18.45;;;2.50;99.90;;;;;;5033978;28;20108;-73
2022/04/01 08:19:09;;;;;;;26.58;17.30;;;2.50;99.90;;;;;;5033399;28;20553;-73
2022/04/01 08:21:34;;;;;;;27.98;17.73;;;2.50;99.90;;;;;;5048331;28;20069;-78
2022/04/01 08:24:00;;;;;;;27.35;17.33;;;2.50;99.90;;;;;;5039200;28;20487;-76
2022/04/01 08:26:26;;;;;;;26.08;16.58;;;2.40;99.90;;;;;;5037876;28;20112;-73
2022/04/01 08:28:52;;;;;;;26.50;18.48;;;2.50;99.90;;;;;;5032140;28;20035;-74
2022/04/01 08:31:18;;;;;;;28.75;18.85;;;2.50;99.90;;;;;;5033337;28;20025;-73
2022/04/01 08:33:45;;;;;;;28.95;17.77;;;2.50;99.90;;;;;;5032125;28;20120;-73
2022/04/01 08:36:11;;;;;;;28.65;17.73;;;2.50;99.90;;;;;;5033352;28;20029;-73
2022/04/01 08:38:37;;;;;;;27.90;18.55;;;2.60;99.90;;;;;;5032488;28;20040;-74
2022/04/01 08:41:03;;;;;;;26.35;18.33;;;2.50;99.90;;;;;;5048026;28;20043;-72
2022/04/01 08:43:31;;;;;;;24.95;15.35;;;2.50;99.90;;;;;;5033705;28;20044;-74
2022/04/01 08:46:00;;;;;;;23.83;16.55;;;2.60;99.90;;;;;;5035478;28;20108;-79
2022/04/01 08:48:27;;;;;;;24.30;16.33;;;2.60;99.90;;;;;;5032193;28;20048;-76
2022/04/01 08:50:53;;;;;;;23.25;15.52;;;2.60;99.90;;;;;;5037686;28;20179;-76
2022/04/01 08:53:20;;;;;;;24.95;16.60;;;2.60;99.90;;;;;;5052616;28;20064;-75
2022/04/01 08:55:47;;;;;;;25.67;17.10;;;2.50;99.90;;;;;;5046206;28;20525;-76
2022/04/01 08:58:16;;;;;;;23.67;15.93;;;2.50;99.90;;;;;;5048653;28;20857;-75
2022/04/01 09:00:43;;;;;;;24.70;16.33;;;2.50;99.90;;;;;;5049263;28;20379;-73
2022/04/01 09:03:10;;;;;;;21.67;15.07;;;2.50;99.90;;;;;;5038753;28;20479;-75
2022/04/01 09:05:37;;;;;;;23.20;15.48;;;2.50;99.90;;;;;;5049459;28;20191;-74
2022/04/01 09:08:08;;;;;;;20.27;14.13;;;2.50;99.90;;;;;;5051490;28;20044;-74
2022/04/01 09:10:53;;;;;;;20.73;14.23;;;2.50;99.90;;;;;;5055127;28;20029;-80
2022/04/01 09:13:22;;;;;;;21.45;13.80;;;2.50;99.90;;;;;;5048283;28;20028;-77
2022/04/01 09:15:48;;;;;;;20.40;13.48;;;2.40;99.90;;;;;;5033148;28;20025;-74
2022/04/01 09:18:31;;;;;;;20.35;13.13;;;2.50;99.90;;;;;;5043929;28;20087;-74
2022/04/01 09:20:56;;;;;;;20.30;12.82;;;2.40;99.90;;;;;;5049003;28;20402;-73
2022/04/01 09:23:23;;;;;;;22.35;13.25;;;2.40;99.90;;;;;;5039442;28;20029;-74
2022/04/01 09:25:51;;;;;;;19.98;14.38;;;2.30;99.90;;;;;;5045722;28;20535;-75
2022/04/01 09:28:44;;;;;;;22.02;14.45;;;2.40;99.90;;;;;;5046201;28;20110;-74
2022/04/01 09:31:12;;;;;;;19.20;13.43;;;2.40;99.90;;;;;;5031697;28;20049;-74
2022/04/01 09:33:43;;;;;;;20.80;13.82;;;2.40;99.90;;;;;;5042960;28;20025;-74
2022/04/01 09:36:16;;;;;;;23.50;15.07;;;2.40;99.90;;;;;;5033393;28;20033;-73
2022/04/01 09:39:10;;;;;;;22.45;14.45;;;2.30;99.90;;;;;;5030730;28;20466;-74
2022/04/01 09:41:42;;;;;;;22.23;14.45;;;2.40;99.90;;;;;;5043276;28;20543;-76
2022/04/01 09:44:17;;;;;;;18.92;12.85;;;2.40;99.90;;;;;;5049734;28;20052;-77
2022/04/01 09:46:52;;;;;;;18.83;13.05;;;2.40;99.90;;;;;;5050490;28;20036;-74
2022/04/01 09:49:42;;;;;;;18.10;12.27;;;2.30;99.90;;;;;;5044456;28;20543;-77
2022/04/01 09:52:12;;;;;;;21.95;13.45;;;2.20;99.90;;;;;;5031657;28;20064;-77
2022/04/01 09:54:53;;;;;;;18.48;12.52;;;2.20;99.90;;;;;;5031102;28;20071;-75
2022/04/01 09:57:24;;;;;;;14.90;10.32;;;2.20;99.90;;;;;;5042585;28;20474;-75
2022/04/01 09:59:52;;;;;;;10.55;7.78;;;2.30;99.90;;;;;;5049464;28;20112;-75
2022/04/01 10:02:18;;;;;;;19.30;9.52;;;2.30;99.90;;;;;;5051333;28;20060;-74
2022/04/01 10:04:45;;;;;;;12.75;8.95;;;2.20;99.90;;;;;;5045109;28;20029;-77
2022/04/01 10:07:11;;;;;;;11.85;7.78;;;2.20;99.90;;;;;;5045013;28;20037;-79
2022/04/01 10:09:38;;;;;;;9.65;7.07;;;2.20;99.90;;;;;;5051226;28;20044;-79
2022/04/01 10:12:10;;;;;;;12.63;8.02;;;2.20;99.90;;;;;;5045614;28;20033;-79
2022/04/01 10:14:40;;;;;;;10.45;7.57;;;2.20;99.90;;;;;;5036568;28;20044;-78
2022/04/01 10:17:10;;;;;;;10.85;8.20;;;2.20;99.90;;;;;;5058374;28;20394;-79
2022/04/01 10:19:41;;;;;;;11.55;7.97;;;2.20;99.90;;;;;;5042499;28;20029;-78
2022/04/01 10:22:06;;;;;;;10.70;7.97;;;2.10;99.90;;;;;;5042433;28;20470;-80
2022/04/01 10:24:47;;;;;;;11.68;7.97;;;2.20;99.90;;;;;;5048462;28;20021;-76
2022/04/01 10:27:30;;;;;;;8.90;6.07;;;2.30;99.90;;;;;;5053863;28;20421;-80
2022/04/01 10:29:56;;;;;;;10.02;7.45;;;2.40;99.90;;;;;;5054423;28;20503;-79
2022/04/01 10:32:30;;;;;;;8.52;6.40;;;2.30;99.90;;;;;;5055773;28;20021;-79
2022/04/01 10:34:59;;;;;;;9.60;6.68;;;2.30;99.90;;;;;;5044621;28;20057;-80
2022/04/01 10:37:26;;;;;;;7.65;5.53;;;2.30;99.90;;;;;;5038423;28;20154;-80
2022/04/01 10:39:58;;;;;;;8.05;5.80;;;2.30;99.90;;;;;;5053568;28;20665;-80
2022/04/01 10:42:42;;;;;;;8.15;6.10;;;2.40;99.90;;;;;;5049549;28;20180;-78
2022/04/01 10:45:23;;;;;;;6.32;5.15;;;2.40;99.90;;;;;;5071732;28;20213;-78
2022/04/01 10:51:36;;;;;;;5.68;4.82;;;2.50;99.90;;;;;;5035437;28;20104;-79
2022/04/01 10:54:12;;;;;;;6.35;4.72;;;2.40;99.90;;;;;;5024938;28;20028;-80
2022/04/01 10:56:43;;;;;;;5.00;4.28;;;2.40;99.90;;;;;;5015578;28;20162;-81
2022/04/01 10:59:16;;;;;;;6.13;4.70;;;2.40;99.90;;;;;;5017680;28;20034;-81
2022/04/01 11:02:03;;;;;;;4.88;4.38;;;2.40;99.90;;;;;;5039140;28;20034;-80
2022/04/01 11:04:35;;;;;;;6.03;4.72;;;2.40;99.90;;;;;;5029670;28;20018;-80
2022/04/01 11:07:11;;;;;;;6.35;4.95;;;2.40;99.90;;;;;;5016055;28;20038;-81
2022/04/01 11:09:46;;;;;;;7.03;5.32;;;2.40;99.90;;;;;;5015138;28;20524;-78
2022/04/01 11:12:23;;;;;;;5.80;4.50;;;2.40;99.90;;;;;;5017169;28;20022;-81
2022/04/01 11:15:21;;;;;;;7.35;5.60;;;2.50;99.90;;;;;;5016287;28;20057;-81
2022/04/01 11:17:43;;;;;;;5.25;4.75;;;2.60;99.90;;;;;;5015375;28;20037;-74
2022/04/01 11:20:11;;;;;;;5.07;4.40;;;2.50;99.90;;;;;;5023901;28;20029;-81
2022/04/01 11:22:53;;;;;;;5.82;4.75;;;2.50;99.90;;;;;;5034358;28;20037;-77
2022/04/01 11:25:24;;;;;;;5.65;4.63;;;2.40;99.90;;;;;;5036825;28;20057;-82
2022/04/01 11:27:56;;;;;;;5.97;5.25;;;2.30;99.90;;;;;;5036153;28;20037;-82
2022/04/01 11:30:42;;;;;;;8.15;6.32;;;2.20;99.90;;;;;;5014324;28;20033;-77
2022/04/01 11:33:13;;;;;;;8.02;6.03;;;2.20;99.90;;;;;;5013882;28;20515;-75
2022/04/01 11:35:45;;;;;;;7.25;5.60;;;2.20;99.90;;;;;;5012763;28;20391;-77
2022/04/01 11:38:15;;;;;;;6.13;5.20;;;2.20;99.90;;;;;;5013469;28;20060;-75
2022/04/01 11:40:43;;;;;;;6.32;4.95;;;2.30;99.90;;;;;;5017314;28;20088;-74
2022/04/01 11:43:28;;;;;;;5.57;4.97;;;2.40;99.90;;;;;;5022037;28;20041;-74
2022/04/01 11:46:03;;;;;;;6.13;5.10;;;2.30;99.90;;;;;;5033215;28;20017;-74
2022/04/01 11:48:37;;;;;;;7.88;6.32;;;2.40;99.90;;;;;;5031734;28;20063;-74
2022/04/01 11:51:04;;;;;;;6.78;5.32;;;2.40;99.90;;;;;;5054162;28;20053;-75
2022/04/01 11:53:37;;;;;;;6.78;5.30;;;2.50;99.90;;;;;;5047814;28;20022;-76
2022/04/01 11:56:10;;;;;;;6.05;4.22;;;2.60;99.90;;;;;;5016873;28;20041;-77
2022/04/01 11:59:01;;;;;;;6.32;5.43;;;2.60;99.90;;;;;;5013581;28;20510;-74
2022/04/01 12:01:54;;;;;;;7.55;5.35;;;2.50;99.90;;;;;;5013930;28;20034;-76
2022/04/01 12:04:32;;;;;;;6.82;5.93;;;2.50;99.90;;;;;;5012396;28;20034;-78
2022/04/01 12:09:44;;;;;;;7.55;5.82;;;2.30;99.90;;;;;;5019248;28;20034;-78
2022/04/01 12:12:21;;;;;;;7.07;5.78;;;2.30;99.90;;;;;;5013527;28;20474;-78
2022/04/01 12:14:47;;;;;;;7.60;6.13;;;2.40;99.90;;;;;;5015366;28;20034;-80
2022/04/01 12:17:14;;;;;;;6.43;5.57;;;2.40;99.90;;;;;;5024955;28;20034;-78
2022/04/01 12:19:40;;;;;;;7.63;6.00;;;2.40;99.90;;;;;;5014637;28;20026;-77
2022/04/01 12:22:08;;;;;;;9.13;7.53;;;2.40;99.90;;;;;;5022501;28;20514;-80
2022/04/01 12:24:35;;;;;;;8.38;6.93;;;2.50;99.90;;;;;;5009501;28;20014;-80
2022/04/01 12:27:04;;;;;;;7.70;6.45;;;2.50;99.90;;;;;;5025131;28;20046;-84
2022/04/01 12:29:30;;;;;;;7.43;6.07;;;2.40;99.90;;;;;;5027963;28;20021;-78
2022/04/01 12:32:07;;;;;;;9.55;7.57;;;2.40;99.90;;;;;;5033927;28;20401;-80
2022/04/01 12:34:33;;;;;;;8.07;7.22;;;2.30;99.90;;;;;;5015268;28;20131;-81
2022/04/01 12:37:06;;;;;;;9.52;8.15;;;2.30;99.90;;;;;;5018545;28;20570;-78
2022/04/01 12:39:35;;;;;;;11.63;9.07;;;2.30;99.90;;;;;;5014881;28;20033;-77
2022/04/01 12:42:15;;;;;;;11.83;9.23;;;2.30;99.90;;;;;;5019220;28;20026;-73
2022/04/01 12:44:41;;;;;;;10.93;8.63;;;2.40;99.90;;;;;;5020518;28;20029;-72
2022/04/01 12:47:12;;;;;;;12.30;9.20;;;2.40;99.90;;;;;;5027986;28;20540;-76
2022/04/01 12:49:42;;;;;;;10.73;7.88;;;2.50;99.90;;;;;;5037289;28;20533;-75
2022/04/01 12:52:15;;;;;;;9.40;8.02;;;2.50;99.90;;;;;;5051644;28;20018;-72
2022/04/01 12:54:49;;;;;;;10.85;8.35;;;2.40;99.90;;;;;;5032897;28;20064;-73
2022/04/01 12:57:18;;;;;;;11.55;9.20;;;2.40;99.90;;;;;;5031674;28;20041;-72
2022/04/01 12:59:48;;;;;;;11.45;8.80;;;2.20;99.90;;;;;;5047100;28;20083;-71
2022/04/01 13:02:25;;;;;;;11.45;9.30;;;2.20;99.90;;;;;;5039518;28;20047;-75
2022/04/01 13:04:58;;;;;;;11.73;9.15;;;2.10;99.90;;;;;;5049971;28;20035;-75
2022/04/01 13:07:33;;;;;;;11.57;8.85;;;2.00;99.90;;;;;;5052896;28;20045;-77
2022/04/01 13:10:09;;;;;;;11.10;8.75;;;1.90;99.90;;;;;;5052706;28;20028;-76